sensor_id;sensor_type;location;lat;lon;timestamp;P1;durP1;ratioP1;P2;durP2;ratioP2
33824;SDS011;20127;48.962;8.342;2022-10-03T00:02:26;110.38;;;9.63;;
33824;SDS011;20127;48.962;8.342;2022-10-03T00:05:48;108.55;;;10.57;;
33824;SDS011;20127;48.962;8.342;2022-10-03T00:09:11;75.20;;;7.53;;
33824;SDS011;20127;48.962;8.342;2022-10-03T00:12:36;94.60;;;10.32;;
33824;SDS011;20127;48.962;8.342;2022-10-03T00:15:48;45.15;;;7.30;;
33824;SDS011;20127;48.962;8.342;2022-10-03T00:18:57;39.10;;;6.60;;
33824;SDS011;20127;48.962;8.342;2022-10-03T00:22:06;36.88;;;5.93;;
33824;SDS011;20127;48.962;8.342;2022-10-03T00:25:20;42.45;;;6.53;;
33824;SDS011;20127;48.962;8.342;2022-10-03T00:28:44;67.43;;;8.40;;
33824;SDS011;20127;48.962;8.342;2022-10-03T00:31:55;34.35;;;5.75;;
33824;SDS011;20127;48.962;8.342;2022-10-03T00:35:11;36.63;;;5.47;;
33824;SDS011;20127;48.962;8.342;2022-10-03T00:38:29;29.98;;;5.68;;
33824;SDS011;20127;48.962;8.342;2022-10-03T00:42:16;43.92;;;6.18;;
33824;SDS011;20127;48.962;8.342;2022-10-03T00:45:46;29.92;;;5.95;;
33824;SDS011;20127;48.962;8.342;2022-10-03T00:52:35;50.70;;;12.07;;
33824;SDS011;20127;48.962;8.342;2022-10-03T00:55:59;27.77;;;6.53;;
33824;SDS011;20127;48.962;8.342;2022-10-03T00:59:15;28.42;;;5.55;;
33824;SDS011;20127;48.962;8.342;2022-10-03T01:02:33;34.47;;;7.05;;
33824;SDS011;20127;48.962;8.342;2022-10-03T01:05:48;37.53;;;6.65;;
33824;SDS011;20127;48.962;8.342;2022-10-03T01:09:09;28.58;;;5.97;;
33824;SDS011;20127;48.962;8.342;2022-10-03T01:16:03;35.60;;;6.30;;
33824;SDS011;20127;48.962;8.342;2022-10-03T01:19:24;37.50;;;6.90;;
33824;SDS011;20127;48.962;8.342;2022-10-03T01:22:53;32.58;;;6.80;;
33824;SDS011;20127;48.962;8.342;2022-10-03T01:26:26;35.40;;;7.15;;
33824;SDS011;20127;48.962;8.342;2022-10-03T01:29:47;37.97;;;6.28;;
33824;SDS011;20127;48.962;8.342;2022-10-03T01:33:10;34.90;;;6.30;;
33824;SDS011;20127;48.962;8.342;2022-10-03T01:36:23;38.40;;;7.18;;
33824;SDS011;20127;48.962;8.342;2022-10-03T01:39:34;41.95;;;7.88;;
33824;SDS011;20127;48.962;8.342;2022-10-03T01:42:43;38.90;;;6.68;;
33824;SDS011;20127;48.962;8.342;2022-10-03T01:45:59;25.65;;;6.05;;
33824;SDS011;20127;48.962;8.342;2022-10-03T01:49:09;25.02;;;6.80;;
33824;SDS011;20127;48.962;8.342;2022-10-03T01:52:18;34.35;;;5.80;;
33824;SDS011;20127;48.962;8.342;2022-10-03T01:55:29;30.13;;;5.30;;
33824;SDS011;20127;48.962;8.342;2022-10-03T01:58:40;32.70;;;6.88;;
33824;SDS011;20127;48.962;8.342;2022-10-03T02:01:52;32.83;;;6.38;;
33824;SDS011;20127;48.962;8.342;2022-10-03T02:05:02;32.10;;;5.82;;
33824;SDS011;20127;48.962;8.342;2022-10-03T02:08:14;35.58;;;6.20;;
33824;SDS011;20127;48.962;8.342;2022-10-03T02:11:29;35.22;;;5.45;;
33824;SDS011;20127;48.962;8.342;2022-10-03T02:18:07;30.38;;;5.63;;
33824;SDS011;20127;48.962;8.342;2022-10-03T02:21:14;27.27;;;5.38;;
33824;SDS011;20127;48.962;8.342;2022-10-03T02:24:25;21.55;;;5.35;;
33824;SDS011;20127;48.962;8.342;2022-10-03T02:27:46;35.95;;;7.57;;
33824;SDS011;20127;48.962;8.342;2022-10-03T02:31:24;21.35;;;5.10;;
33824;SDS011;20127;48.962;8.342;2022-10-03T02:34:50;20.40;;;4.68;;
33824;SDS011;20127;48.962;8.342;2022-10-03T02:38:19;19.88;;;4.22;;
33824;SDS011;20127;48.962;8.342;2022-10-03T02:41:40;28.13;;;5.45;;
33824;SDS011;20127;48.962;8.342;2022-10-03T02:45:12;26.95;;;4.60;;
33824;SDS011;20127;48.962;8.342;2022-10-03T02:48:35;28.10;;;5.82;;
33824;SDS011;20127;48.962;8.342;2022-10-03T02:52:01;25.55;;;5.10;;
33824;SDS011;20127;48.962;8.342;2022-10-03T02:55:26;14.13;;;3.63;;
33824;SDS011;20127;48.962;8.342;2022-10-03T02:58:54;19.58;;;4.53;;
33824;SDS011;20127;48.962;8.342;2022-10-03T03:02:21;21.48;;;3.78;;
33824;SDS011;20127;48.962;8.342;2022-10-03T03:06:02;19.48;;;4.30;;
33824;SDS011;20127;48.962;8.342;2022-10-03T03:10:02;14.98;;;4.10;;
33824;SDS011;20127;48.962;8.342;2022-10-03T03:17:04;14.35;;;5.15;;
33824;SDS011;20127;48.962;8.342;2022-10-03T03:20:15;19.52;;;4.68;;
33824;SDS011;20127;48.962;8.342;2022-10-03T03:23:38;16.98;;;3.92;;
33824;SDS011;20127;48.962;8.342;2022-10-03T03:27:11;22.65;;;4.78;;
33824;SDS011;20127;48.962;8.342;2022-10-03T03:30:31;16.80;;;4.25;;
33824;SDS011;20127;48.962;8.342;2022-10-03T03:33:47;21.13;;;5.28;;
33824;SDS011;20127;48.962;8.342;2022-10-03T03:36:58;38.15;;;6.13;;
33824;SDS011;20127;48.962;8.342;2022-10-03T03:40:08;24.33;;;5.60;;
33824;SDS011;20127;48.962;8.342;2022-10-03T03:43:32;20.05;;;4.53;;
33824;SDS011;20127;48.962;8.342;2022-10-03T03:46:45;29.17;;;5.95;;
33824;SDS011;20127;48.962;8.342;2022-10-03T03:50:08;25.50;;;5.68;;
33824;SDS011;20127;48.962;8.342;2022-10-03T03:57:01;24.80;;;5.97;;
33824;SDS011;20127;48.962;8.342;2022-10-03T04:00:16;27.55;;;5.28;;
33824;SDS011;20127;48.962;8.342;2022-10-03T04:03:25;22.10;;;5.95;;
33824;SDS011;20127;48.962;8.342;2022-10-03T04:06:41;33.40;;;6.47;;
33824;SDS011;20127;48.962;8.342;2022-10-03T04:09:58;28.90;;;5.93;;
33824;SDS011;20127;48.962;8.342;2022-10-03T04:13:13;26.75;;;5.57;;
33824;SDS011;20127;48.962;8.342;2022-10-03T04:20:41;25.92;;;6.03;;
33824;SDS011;20127;48.962;8.342;2022-10-03T04:24:07;31.05;;;6.90;;
33824;SDS011;20127;48.962;8.342;2022-10-03T04:27:25;28.35;;;6.80;;
33824;SDS011;20127;48.962;8.342;2022-10-03T04:30:43;27.15;;;6.75;;
33824;SDS011;20127;48.962;8.342;2022-10-03T04:33:59;27.67;;;5.80;;
33824;SDS011;20127;48.962;8.342;2022-10-03T04:37:16;37.05;;;7.03;;
33824;SDS011;20127;48.962;8.342;2022-10-03T04:40:25;30.05;;;6.68;;
33824;SDS011;20127;48.962;8.342;2022-10-03T04:43:39;30.40;;;6.32;;
33824;SDS011;20127;48.962;8.342;2022-10-03T04:46:46;25.60;;;5.70;;
33824;SDS011;20127;48.962;8.342;2022-10-03T04:49:55;39.45;;;6.38;;
33824;SDS011;20127;48.962;8.342;2022-10-03T04:53:07;25.40;;;6.05;;
33824;SDS011;20127;48.962;8.342;2022-10-03T04:59:50;24.10;;;5.15;;
33824;SDS011;20127;48.962;8.342;2022-10-03T05:03:00;22.63;;;5.10;;
33824;SDS011;20127;48.962;8.342;2022-10-03T05:06:09;30.77;;;6.40;;
33824;SDS011;20127;48.962;8.342;2022-10-03T05:09:26;26.25;;;6.00;;
33824;SDS011;20127;48.962;8.342;2022-10-03T05:15:40;35.05;;;7.38;;
33824;SDS011;20127;48.962;8.342;2022-10-03T05:18:52;30.33;;;7.05;;
33824;SDS011;20127;48.962;8.342;2022-10-03T05:22:00;25.98;;;6.28;;
33824;SDS011;20127;48.962;8.342;2022-10-03T05:25:12;37.92;;;7.47;;
33824;SDS011;20127;48.962;8.342;2022-10-03T05:28:23;26.42;;;6.28;;
33824;SDS011;20127;48.962;8.342;2022-10-03T05:31:41;33.80;;;6.57;;
33824;SDS011;20127;48.962;8.342;2022-10-03T05:34:53;25.27;;;5.28;;
33824;SDS011;20127;48.962;8.342;2022-10-03T05:38:19;28.45;;;6.20;;
33824;SDS011;20127;48.962;8.342;2022-10-03T05:41:37;46.17;;;6.88;;
33824;SDS011;20127;48.962;8.342;2022-10-03T05:44:42;52.50;;;7.63;;
33824;SDS011;20127;48.962;8.342;2022-10-03T05:47:51;56.08;;;8.13;;
33824;SDS011;20127;48.962;8.342;2022-10-03T05:51:06;63.53;;;8.98;;
33824;SDS011;20127;48.962;8.342;2022-10-03T05:54:28;61.97;;;9.32;;
33824;SDS011;20127;48.962;8.342;2022-10-03T05:57:58;70.13;;;9.40;;
33824;SDS011;20127;48.962;8.342;2022-10-03T06:05:04;72.15;;;12.05;;
33824;SDS011;20127;48.962;8.342;2022-10-03T06:08:45;52.95;;;8.27;;
33824;SDS011;20127;48.962;8.342;2022-10-03T06:12:04;62.55;;;8.70;;
33824;SDS011;20127;48.962;8.342;2022-10-03T06:15:24;56.28;;;9.98;;
33824;SDS011;20127;48.962;8.342;2022-10-03T06:22:16;60.92;;;12.70;;
33824;SDS011;20127;48.962;8.342;2022-10-03T06:25:50;60.63;;;12.82;;
33824;SDS011;20127;48.962;8.342;2022-10-03T06:32:58;65.40;;;11.73;;
33824;SDS011;20127;48.962;8.342;2022-10-03T06:36:23;69.05;;;12.63;;
33824;SDS011;20127;48.962;8.342;2022-10-03T06:47:13;63.65;;;12.55;;
33824;SDS011;20127;48.962;8.342;2022-10-03T06:50:46;63.70;;;11.43;;
33824;SDS011;20127;48.962;8.342;2022-10-03T06:54:08;48.17;;;8.77;;
33824;SDS011;20127;48.962;8.342;2022-10-03T06:57:24;63.63;;;10.65;;
33824;SDS011;20127;48.962;8.342;2022-10-03T07:00:46;57.55;;;10.18;;
33824;SDS011;20127;48.962;8.342;2022-10-03T07:04:16;45.05;;;10.18;;
33824;SDS011;20127;48.962;8.342;2022-10-03T07:07:43;48.13;;;9.65;;
33824;SDS011;20127;48.962;8.342;2022-10-03T07:14:52;37.08;;;9.00;;
33824;SDS011;20127;48.962;8.342;2022-10-03T07:18:19;41.25;;;9.60;;
33824;SDS011;20127;48.962;8.342;2022-10-03T07:25:48;34.83;;;9.30;;
33824;SDS011;20127;48.962;8.342;2022-10-03T07:29:31;48.72;;;10.48;;
33824;SDS011;20127;48.962;8.342;2022-10-03T07:36:44;40.58;;;10.73;;
33824;SDS011;20127;48.962;8.342;2022-10-03T07:47:55;55.85;;;13.40;;
33824;SDS011;20127;48.962;8.342;2022-10-03T07:51:12;50.17;;;12.57;;
33824;SDS011;20127;48.962;8.342;2022-10-03T07:58:23;46.05;;;11.60;;
33824;SDS011;20127;48.962;8.342;2022-10-03T08:01:53;42.42;;;10.55;;
33824;SDS011;20127;48.962;8.342;2022-10-03T08:05:14;49.20;;;14.15;;
33824;SDS011;20127;48.962;8.342;2022-10-03T08:08:45;40.05;;;14.65;;
33824;SDS011;20127;48.962;8.342;2022-10-03T08:12:19;43.55;;;15.25;;
33824;SDS011;20127;48.962;8.342;2022-10-03T08:15:35;43.08;;;14.18;;
33824;SDS011;20127;48.962;8.342;2022-10-03T08:18:54;45.55;;;13.73;;
33824;SDS011;20127;48.962;8.342;2022-10-03T08:22:19;39.25;;;14.07;;
33824;SDS011;20127;48.962;8.342;2022-10-03T08:25:45;52.50;;;16.08;;
33824;SDS011;20127;48.962;8.342;2022-10-03T08:29:07;44.30;;;16.65;;
33824;SDS011;20127;48.962;8.342;2022-10-03T08:32:32;33.13;;;14.35;;
33824;SDS011;20127;48.962;8.342;2022-10-03T08:36:01;39.17;;;14.93;;
33824;SDS011;20127;48.962;8.342;2022-10-03T08:39:30;34.58;;;14.77;;
33824;SDS011;20127;48.962;8.342;2022-10-03T08:57:27;40.90;;;17.85;;
33824;SDS011;20127;48.962;8.342;2022-10-03T09:01:06;24.38;;;13.80;;
33824;SDS011;20127;48.962;8.342;2022-10-03T09:04:31;27.23;;;14.75;;
33824;SDS011;20127;48.962;8.342;2022-10-03T09:08:07;37.03;;;12.38;;
33824;SDS011;20127;48.962;8.342;2022-10-03T09:11:37;27.65;;;11.65;;
33824;SDS011;20127;48.962;8.342;2022-10-03T09:15:04;24.73;;;12.27;;
33824;SDS011;20127;48.962;8.342;2022-10-03T09:18:30;20.45;;;11.50;;
33824;SDS011;20127;48.962;8.342;2022-10-03T09:25:24;18.02;;;8.95;;
33824;SDS011;20127;48.962;8.342;2022-10-03T09:32:28;18.55;;;7.63;;
33824;SDS011;20127;48.962;8.342;2022-10-03T09:36:09;14.07;;;6.40;;
33824;SDS011;20127;48.962;8.342;2022-10-03T09:43:24;14.00;;;4.68;;
33824;SDS011;20127;48.962;8.342;2022-10-03T09:46:47;9.50;;;5.00;;
33824;SDS011;20127;48.962;8.342;2022-10-03T09:54:08;12.60;;;4.88;;
33824;SDS011;20127;48.962;8.342;2022-10-03T10:01:24;12.63;;;4.28;;
33824;SDS011;20127;48.962;8.342;2022-10-03T10:04:44;19.17;;;6.30;;
33824;SDS011;20127;48.962;8.342;2022-10-03T10:08:05;13.02;;;4.68;;
33824;SDS011;20127;48.962;8.342;2022-10-03T10:11:37;10.43;;;5.05;;
33824;SDS011;20127;48.962;8.342;2022-10-03T10:15:22;16.23;;;5.88;;
33824;SDS011;20127;48.962;8.342;2022-10-03T10:22:37;11.00;;;6.15;;
33824;SDS011;20127;48.962;8.342;2022-10-03T10:26:07;12.30;;;5.35;;
33824;SDS011;20127;48.962;8.342;2022-10-03T10:33:29;12.95;;;5.25;;
33824;SDS011;20127;48.962;8.342;2022-10-03T10:40:53;14.55;;;3.85;;
33824;SDS011;20127;48.962;8.342;2022-10-03T10:45:03;10.32;;;3.50;;
33824;SDS011;20127;48.962;8.342;2022-10-03T10:52:22;6.50;;;3.22;;
33824;SDS011;20127;48.962;8.342;2022-10-03T10:55:58;13.63;;;3.40;;
33824;SDS011;20127;48.962;8.342;2022-10-03T11:07:18;12.65;;;3.08;;
33824;SDS011;20127;48.962;8.342;2022-10-03T11:10:42;15.18;;;3.60;;
33824;SDS011;20127;48.962;8.342;2022-10-03T11:14:09;8.00;;;2.47;;
33824;SDS011;20127;48.962;8.342;2022-10-03T11:17:49;7.78;;;1.83;;
33824;SDS011;20127;48.962;8.342;2022-10-03T11:21:13;9.30;;;1.90;;
33824;SDS011;20127;48.962;8.342;2022-10-03T11:28:41;7.65;;;1.60;;
33824;SDS011;20127;48.962;8.342;2022-10-03T11:35:33;5.47;;;1.17;;
33824;SDS011;20127;48.962;8.342;2022-10-03T11:38:56;8.38;;;1.55;;
33824;SDS011;20127;48.962;8.342;2022-10-03T11:42:05;7.97;;;1.58;;
33824;SDS011;20127;48.962;8.342;2022-10-03T11:45:23;5.95;;;2.17;;
33824;SDS011;20127;48.962;8.342;2022-10-03T11:48:36;4.68;;;1.83;;
33824;SDS011;20127;48.962;8.342;2022-10-03T11:51:41;7.55;;;1.63;;
33824;SDS011;20127;48.962;8.342;2022-10-03T11:54:51;4.88;;;1.10;;
33824;SDS011;20127;48.962;8.342;2022-10-03T11:58:08;6.93;;;1.30;;
33824;SDS011;20127;48.962;8.342;2022-10-03T12:01:38;4.82;;;1.15;;
33824;SDS011;20127;48.962;8.342;2022-10-03T12:04:55;11.43;;;2.38;;
33824;SDS011;20127;48.962;8.342;2022-10-03T12:08:05;4.03;;;1.77;;
33824;SDS011;20127;48.962;8.342;2022-10-03T12:11:35;6.65;;;1.38;;
33824;SDS011;20127;48.962;8.342;2022-10-03T12:14:44;4.97;;;1.42;;
33824;SDS011;20127;48.962;8.342;2022-10-03T12:17:52;6.00;;;1.58;;
33824;SDS011;20127;48.962;8.342;2022-10-03T12:21:06;10.52;;;1.67;;
33824;SDS011;20127;48.962;8.342;2022-10-03T12:24:16;4.78;;;1.25;;
33824;SDS011;20127;48.962;8.342;2022-10-03T12:27:35;6.50;;;1.23;;
33824;SDS011;20127;48.962;8.342;2022-10-03T12:30:45;5.63;;;2.00;;
33824;SDS011;20127;48.962;8.342;2022-10-03T12:33:51;4.30;;;1.08;;
33824;SDS011;20127;48.962;8.342;2022-10-03T12:37:05;4.82;;;1.52;;
33824;SDS011;20127;48.962;8.342;2022-10-03T12:40:23;9.68;;;1.52;;
33824;SDS011;20127;48.962;8.342;2022-10-03T12:43:34;7.22;;;1.50;;
33824;SDS011;20127;48.962;8.342;2022-10-03T12:46:50;2.25;;;0.85;;
33824;SDS011;20127;48.962;8.342;2022-10-03T12:50:04;3.72;;;1.23;;
33824;SDS011;20127;48.962;8.342;2022-10-03T12:53:22;8.80;;;1.17;;
33824;SDS011;20127;48.962;8.342;2022-10-03T12:56:29;5.43;;;1.35;;
33824;SDS011;20127;48.962;8.342;2022-10-03T12:59:41;4.50;;;1.42;;
33824;SDS011;20127;48.962;8.342;2022-10-03T13:02:48;4.55;;;1.73;;
33824;SDS011;20127;48.962;8.342;2022-10-03T13:06:28;14.35;;;4.13;;
33824;SDS011;20127;48.962;8.342;2022-10-03T13:13:02;2.25;;;1.10;;
33824;SDS011;20127;48.962;8.342;2022-10-03T13:16:16;7.18;;;1.33;;
33824;SDS011;20127;48.962;8.342;2022-10-03T13:19:24;5.28;;;1.30;;
33824;SDS011;20127;48.962;8.342;2022-10-03T13:22:32;2.60;;;1.30;;
33824;SDS011;20127;48.962;8.342;2022-10-03T13:25:41;4.55;;;1.17;;
33824;SDS011;20127;48.962;8.342;2022-10-03T13:28:51;7.53;;;1.70;;
33824;SDS011;20127;48.962;8.342;2022-10-03T13:32:14;2.67;;;0.88;;
33824;SDS011;20127;48.962;8.342;2022-10-03T13:35:28;5.93;;;2.22;;
33824;SDS011;20127;48.962;8.342;2022-10-03T13:39:04;2.55;;;1.33;;
33824;SDS011;20127;48.962;8.342;2022-10-03T13:42:15;4.70;;;1.17;;
33824;SDS011;20127;48.962;8.342;2022-10-03T13:45:20;5.63;;;1.38;;
33824;SDS011;20127;48.962;8.342;2022-10-03T13:48:25;5.50;;;0.90;;
33824;SDS011;20127;48.962;8.342;2022-10-03T13:51:33;3.58;;;0.80;;
33824;SDS011;20127;48.962;8.342;2022-10-03T13:54:49;5.45;;;1.27;;
33824;SDS011;20127;48.962;8.342;2022-10-03T14:01:41;6.15;;;1.23;;
33824;SDS011;20127;48.962;8.342;2022-10-03T14:04:52;6.15;;;1.58;;
33824;SDS011;20127;48.962;8.342;2022-10-03T14:08:05;3.20;;;1.17;;
33824;SDS011;20127;48.962;8.342;2022-10-03T14:11:16;6.60;;;1.52;;
33824;SDS011;20127;48.962;8.342;2022-10-03T14:14:30;5.13;;;1.48;;
33824;SDS011;20127;48.962;8.342;2022-10-03T14:17:40;9.13;;;1.40;;
33824;SDS011;20127;48.962;8.342;2022-10-03T14:24:41;3.28;;;1.15;;
33824;SDS011;20127;48.962;8.342;2022-10-03T14:27:54;2.85;;;1.05;;
33824;SDS011;20127;48.962;8.342;2022-10-03T14:31:03;6.57;;;0.98;;
33824;SDS011;20127;48.962;8.342;2022-10-03T14:34:12;3.78;;;0.80;;
33824;SDS011;20127;48.962;8.342;2022-10-03T14:37:25;5.20;;;0.90;;
33824;SDS011;20127;48.962;8.342;2022-10-03T14:40:37;5.78;;;1.00;;
33824;SDS011;20127;48.962;8.342;2022-10-03T14:43:51;8.43;;;1.20;;
33824;SDS011;20127;48.962;8.342;2022-10-03T14:47:07;5.50;;;0.88;;
33824;SDS011;20127;48.962;8.342;2022-10-03T14:50:13;5.03;;;1.00;;
33824;SDS011;20127;48.962;8.342;2022-10-03T14:57:22;6.03;;;1.65;;
33824;SDS011;20127;48.962;8.342;2022-10-03T15:00:35;3.97;;;1.02;;
33824;SDS011;20127;48.962;8.342;2022-10-03T15:03:43;5.95;;;1.75;;
33824;SDS011;20127;48.962;8.342;2022-10-03T15:11:12;3.78;;;0.95;;
33824;SDS011;20127;48.962;8.342;2022-10-03T15:14:23;6.60;;;1.15;;
33824;SDS011;20127;48.962;8.342;2022-10-03T15:21:47;3.28;;;0.88;;
33824;SDS011;20127;48.962;8.342;2022-10-03T15:31:17;23.70;;;11.85;;
33824;SDS011;20127;48.962;8.342;2022-10-03T15:34:03;5.82;;;2.67;;
33824;SDS011;20127;48.962;8.342;2022-10-03T15:37:12;13.70;;;8.25;;
33824;SDS011;20127;48.962;8.342;2022-10-03T15:40:19;5.93;;;4.88;;
33824;SDS011;20127;48.962;8.342;2022-10-03T15:43:26;5.43;;;2.15;;
33824;SDS011;20127;48.962;8.342;2022-10-03T15:49:25;3.85;;;1.65;;
33824;SDS011;20127;48.962;8.342;2022-10-03T15:50:58;4.88;;;1.98;;
33824;SDS011;20127;48.962;8.342;2022-10-03T15:54:12;4.80;;;1.77;;
33824;SDS011;20127;48.962;8.342;2022-10-03T15:57:20;3.85;;;1.33;;
33824;SDS011;20127;48.962;8.342;2022-10-03T16:00:30;6.28;;;1.50;;
33824;SDS011;20127;48.962;8.342;2022-10-03T16:03:38;4.68;;;1.63;;
33824;SDS011;20127;48.962;8.342;2022-10-03T16:06:48;2.90;;;1.25;;
33824;SDS011;20127;48.962;8.342;2022-10-03T16:10:02;9.57;;;1.92;;
33824;SDS011;20127;48.962;8.342;2022-10-03T16:13:22;3.40;;;1.63;;
33824;SDS011;20127;48.962;8.342;2022-10-03T16:19:38;4.70;;;1.40;;
33824;SDS011;20127;48.962;8.342;2022-10-03T16:22:43;12.32;;;1.60;;
33824;SDS011;20127;48.962;8.342;2022-10-03T16:25:53;4.95;;;1.42;;
33824;SDS011;20127;48.962;8.342;2022-10-03T16:29:04;8.50;;;2.65;;
33824;SDS011;20127;48.962;8.342;2022-10-03T16:32:13;7.95;;;2.53;;
33824;SDS011;20127;48.962;8.342;2022-10-03T16:35:22;9.35;;;3.50;;
33824;SDS011;20127;48.962;8.342;2022-10-03T16:38:37;12.60;;;3.17;;
33824;SDS011;20127;48.962;8.342;2022-10-03T16:41:42;7.53;;;1.67;;
33824;SDS011;20127;48.962;8.342;2022-10-03T16:44:47;8.52;;;2.38;;
33824;SDS011;20127;48.962;8.342;2022-10-03T16:47:51;19.30;;;14.68;;
33824;SDS011;20127;48.962;8.342;2022-10-03T16:51:14;14.10;;;9.70;;
33824;SDS011;20127;48.962;8.342;2022-10-03T16:54:19;6.20;;;3.20;;
33824;SDS011;20127;48.962;8.342;2022-10-03T16:57:24;9.73;;;3.42;;
33824;SDS011;20127;48.962;8.342;2022-10-03T17:00:33;8.35;;;2.10;;
33824;SDS011;20127;48.962;8.342;2022-10-03T17:03:42;9.43;;;3.40;;
33824;SDS011;20127;48.962;8.342;2022-10-03T17:06:47;10.07;;;2.75;;
33824;SDS011;20127;48.962;8.342;2022-10-03T17:09:51;8.07;;;2.17;;
33824;SDS011;20127;48.962;8.342;2022-10-03T17:12:56;4.97;;;2.22;;
33824;SDS011;20127;48.962;8.342;2022-10-03T17:16:00;10.15;;;2.17;;
33824;SDS011;20127;48.962;8.342;2022-10-03T17:19:12;8.00;;;2.15;;
33824;SDS011;20127;48.962;8.342;2022-10-03T17:22:25;6.35;;;2.30;;
33824;SDS011;20127;48.962;8.342;2022-10-03T17:25:33;7.18;;;1.90;;
33824;SDS011;20127;48.962;8.342;2022-10-03T17:28:52;7.43;;;1.90;;
33824;SDS011;20127;48.962;8.342;2022-10-03T17:31:57;10.23;;;2.38;;
33824;SDS011;20127;48.962;8.342;2022-10-03T17:35:03;6.00;;;3.13;;
33824;SDS011;20127;48.962;8.342;2022-10-03T17:38:12;7.25;;;2.05;;
33824;SDS011;20127;48.962;8.342;2022-10-03T17:41:22;3.70;;;2.00;;
33824;SDS011;20127;48.962;8.342;2022-10-03T17:44:36;6.25;;;2.00;;
33824;SDS011;20127;48.962;8.342;2022-10-03T17:47:52;5.85;;;2.13;;
33824;SDS011;20127;48.962;8.342;2022-10-03T17:51:18;8.05;;;2.22;;
33824;SDS011;20127;48.962;8.342;2022-10-03T17:54:29;4.43;;;1.92;;
33824;SDS011;20127;48.962;8.342;2022-10-03T17:57:35;5.05;;;1.77;;
33824;SDS011;20127;48.962;8.342;2022-10-03T18:01:02;10.40;;;1.92;;
33824;SDS011;20127;48.962;8.342;2022-10-03T18:08:00;6.70;;;1.98;;
33824;SDS011;20127;48.962;8.342;2022-10-03T18:11:07;9.30;;;2.47;;
33824;SDS011;20127;48.962;8.342;2022-10-03T18:14:12;12.18;;;1.90;;
33824;SDS011;20127;48.962;8.342;2022-10-03T18:17:23;8.05;;;2.10;;
33824;SDS011;20127;48.962;8.342;2022-10-03T18:20:41;11.35;;;1.40;;
33824;SDS011;20127;48.962;8.342;2022-10-03T18:23:49;8.10;;;2.63;;
33824;SDS011;20127;48.962;8.342;2022-10-03T18:27:20;5.13;;;1.67;;
33824;SDS011;20127;48.962;8.342;2022-10-03T18:30:51;8.43;;;2.90;;
33824;SDS011;20127;48.962;8.342;2022-10-03T18:33:59;4.68;;;2.30;;
33824;SDS011;20127;48.962;8.342;2022-10-03T18:37:15;5.88;;;2.15;;
33824;SDS011;20127;48.962;8.342;2022-10-03T18:40:35;10.82;;;2.92;;
33824;SDS011;20127;48.962;8.342;2022-10-03T18:43:43;6.25;;;1.83;;
33824;SDS011;20127;48.962;8.342;2022-10-03T18:46:46;5.88;;;2.40;;
33824;SDS011;20127;48.962;8.342;2022-10-03T18:49:55;11.25;;;3.20;;
33824;SDS011;20127;48.962;8.342;2022-10-03T18:53:12;9.07;;;3.13;;
33824;SDS011;20127;48.962;8.342;2022-10-03T18:56:19;7.00;;;3.63;;
33824;SDS011;20127;48.962;8.342;2022-10-03T18:59:27;9.35;;;2.38;;
33824;SDS011;20127;48.962;8.342;2022-10-03T19:02:35;6.25;;;2.58;;
33824;SDS011;20127;48.962;8.342;2022-10-03T19:05:50;9.18;;;2.03;;
33824;SDS011;20127;48.962;8.342;2022-10-03T19:08:57;5.72;;;2.53;;
33824;SDS011;20127;48.962;8.342;2022-10-03T19:12:04;6.88;;;2.35;;
33824;SDS011;20127;48.962;8.342;2022-10-03T19:15:16;8.95;;;2.55;;
33824;SDS011;20127;48.962;8.342;2022-10-03T19:18:22;5.07;;;2.50;;
33824;SDS011;20127;48.962;8.342;2022-10-03T19:21:34;7.40;;;4.07;;
33824;SDS011;20127;48.962;8.342;2022-10-03T19:24:38;8.32;;;3.17;;
33824;SDS011;20127;48.962;8.342;2022-10-03T19:27:43;10.75;;;3.25;;
33824;SDS011;20127;48.962;8.342;2022-10-03T19:30:54;13.60;;;3.42;;
33824;SDS011;20127;48.962;8.342;2022-10-03T19:34:04;8.90;;;3.08;;
33824;SDS011;20127;48.962;8.342;2022-10-03T19:37:21;11.30;;;3.22;;
33824;SDS011;20127;48.962;8.342;2022-10-03T19:40:36;13.77;;;2.97;;
33824;SDS011;20127;48.962;8.342;2022-10-03T19:43:45;7.38;;;3.33;;
33824;SDS011;20127;48.962;8.342;2022-10-03T19:47:02;5.88;;;3.15;;
33824;SDS011;20127;48.962;8.342;2022-10-03T19:50:13;9.45;;;3.55;;
33824;SDS011;20127;48.962;8.342;2022-10-03T19:53:21;6.82;;;2.80;;
33824;SDS011;20127;48.962;8.342;2022-10-03T19:56:23;13.82;;;3.33;;
33824;SDS011;20127;48.962;8.342;2022-10-03T19:59:35;9.40;;;3.42;;
33824;SDS011;20127;48.962;8.342;2022-10-03T20:02:43;11.45;;;3.53;;
33824;SDS011;20127;48.962;8.342;2022-10-03T20:05:48;10.25;;;3.50;;
33824;SDS011;20127;48.962;8.342;2022-10-03T20:08:58;9.30;;;3.40;;
33824;SDS011;20127;48.962;8.342;2022-10-03T20:12:02;4.90;;;2.60;;
33824;SDS011;20127;48.962;8.342;2022-10-03T20:15:13;5.15;;;2.95;;
33824;SDS011;20127;48.962;8.342;2022-10-03T20:18:20;13.98;;;4.28;;
33824;SDS011;20127;48.962;8.342;2022-10-03T20:21:24;14.88;;;3.00;;
33824;SDS011;20127;48.962;8.342;2022-10-03T20:24:30;7.50;;;2.90;;
33824;SDS011;20127;48.962;8.342;2022-10-03T20:27:35;11.73;;;3.47;;
33824;SDS011;20127;48.962;8.342;2022-10-03T20:30:42;5.20;;;2.88;;
33824;SDS011;20127;48.962;8.342;2022-10-03T20:33:47;15.18;;;4.20;;
33824;SDS011;20127;48.962;8.342;2022-10-03T20:36:50;7.78;;;2.90;;
33824;SDS011;20127;48.962;8.342;2022-10-03T20:39:59;7.60;;;4.18;;
33824;SDS011;20127;48.962;8.342;2022-10-03T20:43:17;8.93;;;4.40;;
33824;SDS011;20127;48.962;8.342;2022-10-03T20:46:31;16.27;;;3.97;;
33824;SDS011;20127;48.962;8.342;2022-10-03T20:49:38;7.88;;;3.92;;
33824;SDS011;20127;48.962;8.342;2022-10-03T20:52:48;16.92;;;4.95;;
33824;SDS011;20127;48.962;8.342;2022-10-03T20:55:54;11.68;;;3.00;;
33824;SDS011;20127;48.962;8.342;2022-10-03T20:58:59;10.90;;;2.95;;
33824;SDS011;20127;48.962;8.342;2022-10-03T21:02:09;6.70;;;3.55;;
33824;SDS011;20127;48.962;8.342;2022-10-03T21:05:21;9.88;;;3.78;;
33824;SDS011;20127;48.962;8.342;2022-10-03T21:08:25;8.88;;;3.92;;
33824;SDS011;20127;48.962;8.342;2022-10-03T21:11:31;15.10;;;4.40;;
33824;SDS011;20127;48.962;8.342;2022-10-03T21:14:38;13.98;;;4.88;;
33824;SDS011;20127;48.962;8.342;2022-10-03T21:17:42;11.27;;;3.90;;
33824;SDS011;20127;48.962;8.342;2022-10-03T21:20:45;16.48;;;4.25;;
33824;SDS011;20127;48.962;8.342;2022-10-03T21:23:51;11.13;;;4.35;;
33824;SDS011;20127;48.962;8.342;2022-10-03T21:26:58;13.95;;;4.50;;
33824;SDS011;20127;48.962;8.342;2022-10-03T21:30:03;13.43;;;5.28;;
33824;SDS011;20127;48.962;8.342;2022-10-03T21:33:16;8.05;;;3.20;;
33824;SDS011;20127;48.962;8.342;2022-10-03T21:36:21;13.30;;;4.28;;
33824;SDS011;20127;48.962;8.342;2022-10-03T21:39:28;9.45;;;3.33;;
33824;SDS011;20127;48.962;8.342;2022-10-03T21:42:43;12.77;;;4.57;;
33824;SDS011;20127;48.962;8.342;2022-10-03T21:45:57;7.47;;;4.28;;
33824;SDS011;20127;48.962;8.342;2022-10-03T21:52:43;8.65;;;3.97;;
33824;SDS011;20127;48.962;8.342;2022-10-03T21:55:59;10.50;;;3.63;;
33824;SDS011;20127;48.962;8.342;2022-10-03T21:59:30;13.05;;;4.70;;
33824;SDS011;20127;48.962;8.342;2022-10-03T22:02:49;8.27;;;3.65;;
33824;SDS011;20127;48.962;8.342;2022-10-03T22:05:59;11.15;;;4.07;;
33824;SDS011;20127;48.962;8.342;2022-10-03T22:09:10;9.98;;;4.03;;
33824;SDS011;20127;48.962;8.342;2022-10-03T22:12:14;8.50;;;4.38;;
33824;SDS011;20127;48.962;8.342;2022-10-03T22:15:22;17.80;;;5.28;;
33824;SDS011;20127;48.962;8.342;2022-10-03T22:18:32;13.52;;;5.72;;
33824;SDS011;20127;48.962;8.342;2022-10-03T22:21:45;11.05;;;4.88;;
33824;SDS011;20127;48.962;8.342;2022-10-03T22:25:03;14.88;;;4.88;;